createdAt,value
2018-10-21T00:03:45.231Z,10.85
2018-10-21T00:08:48.526Z,10.87
2018-10-21T00:13:51.835Z,10.88
2018-10-21T00:18:55.158Z,10.89
2018-10-21T00:23:58.486Z,10.87
2018-10-21T00:29:01.823Z,10.78
2018-10-21T00:34:05.344Z,10.77
2018-10-21T00:39:10.827Z,10.72
2018-10-21T00:44:14.133Z,10.69
2018-10-21T00:49:17.458Z,10.65
2018-10-21T00:54:20.792Z,10.65
2018-10-21T00:59:24.141Z,10.64
2018-10-21T01:04:27.433Z,10.55
2018-10-21T01:09:30.727Z,10.56
2018-10-21T01:14:34.096Z,10.60
2018-10-21T01:19:37.456Z,10.56
2018-10-21T01:24:40.775Z,10.52
2018-10-21T01:29:46.542Z,10.53
2018-10-21T01:34:49.829Z,10.50
2018-10-21T01:40:57.739Z,10.48
2018-10-21T01:46:01.699Z,10.46
2018-10-21T01:51:05.098Z,10.46
2018-10-21T01:56:08.374Z,10.44
2018-10-21T02:01:11.708Z,10.38
2018-10-21T02:06:15.033Z,10.34
2018-10-21T02:11:18.332Z,10.24
2018-10-21T02:16:21.744Z,10.10
2018-10-21T02:21:25.053Z,9.97
2018-10-21T02:26:28.447Z,10.01
2018-10-21T02:31:31.852Z,10.00
2018-10-21T02:36:35.277Z,9.99
2018-10-21T02:41:50.094Z,10.00
2018-10-21T02:46:55.561Z,9.95
2018-10-21T02:52:04.326Z,9.81
2018-10-21T02:57:09.823Z,9.73
2018-10-21T03:02:13.144Z,9.76
2018-10-21T03:07:16.563Z,9.77
2018-10-21T03:12:19.898Z,9.73
2018-10-21T03:17:23.226Z,9.73
2018-10-21T03:22:26.682Z,9.70
2018-10-21T03:27:29.982Z,9.63
2018-10-21T03:32:33.267Z,9.55
2018-10-21T03:37:36.586Z,9.48
2018-10-21T03:42:39.943Z,9.40
2018-10-21T03:47:43.248Z,9.34
2018-10-21T03:52:46.645Z,9.36
2018-10-21T03:57:50.012Z,9.40
2018-10-21T04:02:53.294Z,9.35
2018-10-21T04:07:56.614Z,9.28
2018-10-21T04:13:00.122Z,9.15
2018-10-21T04:18:03.432Z,9.01
2018-10-21T04:23:06.750Z,8.88
2018-10-21T04:28:10.709Z,8.82
2018-10-21T04:33:48.438Z,8.74
2018-10-21T04:40:01.438Z,8.68
2018-10-21T04:45:06.444Z,8.53
2018-10-21T04:50:10.530Z,8.45
2018-10-21T04:55:15.119Z,8.36
2018-10-21T05:00:20.244Z,8.28
2018-10-21T05:05:23.553Z,8.25
2018-10-21T05:10:28.693Z,8.20
2018-10-21T05:15:34.130Z,8.15
2018-10-21T05:20:37.405Z,8.13
2018-10-21T05:25:40.723Z,8.06
2018-10-21T05:30:44.026Z,7.97
2018-10-21T05:35:47.326Z,7.94
2018-10-21T05:40:51.053Z,7.92
2018-10-21T05:45:54.435Z,7.94
2018-10-21T05:50:57.762Z,7.93
2018-10-21T05:56:01.195Z,8.00
2018-10-21T06:01:04.651Z,8.12
2018-10-21T06:06:07.963Z,8.09
2018-10-21T06:11:11.285Z,8.00
2018-10-21T06:16:15.049Z,7.98
2018-10-21T06:21:18.855Z,7.92
2018-10-21T06:26:22.781Z,7.98
2018-10-21T06:31:26.149Z,8.12
2018-10-21T06:36:29.560Z,8.22
2018-10-21T06:41:33.020Z,8.30
2018-10-21T06:46:36.740Z,8.39
2018-10-21T06:51:40.078Z,8.50
2018-10-21T06:56:43.543Z,8.52
2018-10-21T07:01:46.726Z,8.59
2018-10-21T07:06:50.044Z,8.84
2018-10-21T07:11:53.548Z,9.08
2018-10-21T07:16:56.954Z,9.28
2018-10-21T07:22:00.302Z,9.59
2018-10-21T07:27:03.642Z,9.98
2018-10-21T07:32:07.373Z,10.25
2018-10-21T07:37:11.455Z,10.37
2018-10-21T07:42:14.864Z,10.43
2018-10-21T07:47:18.206Z,10.50
2018-10-21T07:52:21.521Z,10.63
2018-10-21T07:57:25.136Z,10.71
2018-10-21T08:02:28.740Z,10.90
2018-10-21T08:07:43.568Z,11.21
2018-10-21T08:12:46.866Z,11.45
2018-10-21T08:17:50.374Z,11.59
2018-10-21T08:22:53.885Z,11.68
2018-10-21T08:27:57.440Z,11.67
2018-10-21T08:33:00.859Z,11.40
2018-10-21T08:38:04.326Z,11.26
2018-10-21T08:43:07.678Z,11.44
2018-10-21T08:48:11.000Z,11.45
2018-10-21T08:53:14.332Z,11.46
2018-10-21T08:58:17.946Z,11.56
2018-10-21T09:03:21.304Z,11.70
2018-10-21T09:08:24.680Z,11.71
2018-10-21T09:13:28.207Z,11.69
2018-10-21T09:18:31.517Z,11.75
2018-10-21T09:23:34.895Z,11.82
2018-10-21T09:28:38.366Z,11.91
2018-10-21T09:33:41.783Z,11.98
2018-10-21T09:38:45.310Z,12.04
2018-10-21T09:43:48.955Z,12.06
2018-10-21T10:39:31.110Z,13.24
2018-10-21T10:44:34.453Z,13.27
2018-10-21T10:49:37.778Z,13.90
2018-10-21T10:54:41.138Z,13.83
2018-10-21T10:59:44.513Z,13.71
2018-10-21T11:04:48.761Z,13.77
2018-10-21T11:09:53.230Z,13.66
2018-10-21T11:14:57.285Z,13.74
2018-10-21T11:20:01.426Z,16.59
2018-10-21T11:25:08.847Z,26.01
2018-10-21T11:30:13.019Z,29.58
2018-10-21T11:35:17.307Z,31.27
2018-10-21T11:40:20.610Z,32.68
2018-10-21T11:45:24.530Z,33.21
2018-10-21T11:50:28.465Z,34.19
2018-10-21T11:55:39.234Z,34.04
2018-10-21T12:00:43.977Z,35.54
2018-10-21T12:05:47.459Z,35.53
2018-10-21T12:10:51.126Z,34.45
2018-10-21T12:15:54.961Z,33.72
2018-10-21T12:20:58.856Z,34.84
2018-10-21T12:26:02.261Z,35.32
2018-10-21T12:31:05.821Z,36.42
2018-10-21T12:36:09.616Z,37.21
2018-10-21T12:41:13.338Z,36.62
2018-10-21T12:46:16.732Z,35.14
2018-10-21T12:51:20.300Z,36.57
2018-10-21T12:56:23.978Z,36.22
2018-10-21T13:01:27.458Z,35.89
2018-10-21T13:06:31.139Z,34.49
2018-10-21T13:11:34.474Z,31.45
2018-10-21T13:16:37.828Z,24.96
2018-10-21T13:21:41.331Z,22.73
2018-10-21T13:26:44.721Z,20.96
2018-10-21T13:31:48.485Z,19.74
2018-10-21T13:36:52.733Z,20.90
2018-10-21T13:41:56.403Z,20.37
2018-10-21T13:46:59.943Z,17.98
2018-10-21T13:52:03.553Z,17.08
2018-10-21T13:57:06.821Z,16.80
2018-10-21T14:02:10.288Z,16.61
2018-10-21T14:07:16.669Z,16.48
2018-10-21T14:12:20.110Z,16.37
2018-10-21T14:17:23.475Z,16.12
2018-10-21T14:22:26.814Z,15.99
2018-10-21T14:27:30.243Z,15.83
2018-10-21T14:32:33.798Z,15.69
2018-10-21T14:37:37.672Z,15.70
2018-10-21T14:42:41.266Z,15.62
2018-10-21T14:47:44.823Z,15.57
2018-10-21T14:52:48.780Z,15.58
2018-10-21T14:57:52.266Z,15.45
2018-10-21T15:02:55.936Z,15.41
2018-10-21T15:07:59.648Z,15.36
2018-10-21T15:13:03.724Z,15.36
2018-10-21T15:18:07.588Z,15.32
2018-10-21T15:23:11.159Z,15.22
2018-10-21T15:28:15.026Z,15.16
2018-10-21T15:33:18.373Z,15.08
2018-10-21T15:38:21.874Z,14.99
2018-10-21T15:43:25.233Z,14.95
2018-10-21T15:48:28.654Z,14.78
2018-10-21T15:53:31.950Z,14.55
2018-10-21T15:58:35.335Z,14.28
2018-10-21T16:03:38.924Z,14.00
2018-10-21T16:08:42.232Z,13.80
2018-10-21T16:13:45.679Z,13.56
2018-10-21T16:18:49.018Z,13.40
2018-10-21T16:23:52.310Z,13.25
2018-10-21T16:28:55.716Z,13.01
2018-10-21T16:33:59.090Z,12.84
2018-10-21T16:39:02.460Z,12.73
2018-10-21T16:44:05.944Z,12.58
2018-10-21T16:49:09.255Z,12.40
2018-10-21T16:54:12.714Z,12.29
2018-10-21T16:59:16.063Z,12.17
2018-10-21T17:04:19.330Z,11.97
2018-10-21T17:09:22.763Z,11.88
2018-10-21T17:14:26.665Z,11.76
2018-10-21T17:19:30.661Z,11.67
2018-10-21T17:24:34.443Z,11.58
2018-10-21T17:29:37.873Z,11.45
2018-10-21T17:34:41.598Z,11.35
2018-10-21T17:39:45.195Z,11.31
2018-10-21T17:44:49.620Z,11.26
2018-10-21T17:49:53.410Z,11.12
2018-10-21T17:54:56.888Z,10.97
2018-10-21T18:00:00.436Z,10.84
2018-10-21T18:05:04.537Z,10.75
2018-10-21T18:10:08.005Z,10.64
2018-10-21T18:15:12.228Z,10.65
2018-10-21T18:20:15.706Z,10.61
2018-10-21T18:25:19.305Z,10.49
2018-10-21T18:30:23.604Z,10.46
2018-10-21T18:35:27.083Z,10.48
2018-10-21T18:40:30.512Z,10.47
2018-10-21T18:45:33.799Z,10.47
2018-10-21T18:50:37.222Z,10.44
2018-10-21T18:55:40.811Z,10.25
2018-10-21T19:00:44.286Z,10.08
2018-10-21T19:05:47.699Z,10.10
2018-10-21T19:10:51.076Z,10.03
2018-10-21T19:15:54.586Z,9.68
2018-10-21T19:20:57.958Z,9.60
2018-10-21T19:26:01.371Z,9.61
2018-10-21T19:31:04.727Z,9.60
2018-10-21T19:36:08.063Z,9.63
2018-10-21T19:41:11.446Z,9.60
2018-10-21T19:46:15.449Z,9.68
2018-10-21T19:51:18.972Z,9.54
2018-10-21T19:56:22.516Z,9.47
2018-10-21T20:01:25.934Z,9.52
2018-10-21T20:06:29.242Z,9.53
2018-10-21T20:11:32.534Z,9.45
2018-10-21T20:16:35.878Z,9.46
2018-10-21T20:21:40.142Z,9.40
2018-10-21T20:26:43.682Z,9.28
2018-10-21T20:31:47.151Z,9.22
2018-10-21T20:36:51.102Z,9.16
2018-10-21T20:41:55.267Z,9.12
2018-10-21T20:46:59.232Z,9.13
2018-10-21T20:52:02.756Z,9.02
2018-10-21T20:57:08.256Z,8.96
2018-10-21T21:02:12.767Z,8.86
2018-10-21T21:07:16.857Z,8.90
2018-10-21T21:12:20.210Z,8.89
2018-10-21T21:17:23.502Z,8.86
2018-10-21T21:22:27.022Z,8.71
2018-10-21T21:27:30.523Z,8.49
2018-10-21T21:43:49.368Z,8.51
2018-10-21T21:48:52.777Z,8.52
2018-10-21T21:53:56.115Z,8.35
2018-10-21T21:58:59.530Z,8.33
2018-10-21T22:04:02.930Z,8.30
2018-10-21T22:09:10.493Z,8.24
2018-10-21T22:14:13.777Z,8.14
2018-10-21T22:19:17.078Z,8.17
2018-10-21T22:24:20.448Z,8.11
2018-10-21T22:29:23.802Z,8.03
2018-10-21T22:34:27.134Z,8.03
2018-10-21T22:39:30.476Z,8.02
2018-10-21T22:44:33.830Z,7.81
2018-10-21T22:49:37.151Z,7.69
2018-10-21T22:54:40.469Z,7.68
2018-10-21T22:59:43.802Z,7.70
2018-10-21T23:04:47.570Z,7.66
2018-10-21T23:09:51.297Z,7.58
2018-10-21T23:14:54.668Z,7.54
2018-10-21T23:19:57.978Z,7.49
2018-10-21T23:25:01.349Z,7.39
2018-10-21T23:30:06.735Z,7.31
2018-10-21T23:35:10.039Z,7.29
2018-10-21T23:40:13.359Z,7.26
2018-10-21T23:45:16.662Z,7.32
2018-10-21T23:50:19.975Z,7.32
2018-10-21T23:55:23.264Z,7.25
